createdAt,value
2022-10-18T00:00:58.082Z,15.70
2022-10-18T00:03:00.605Z,15.80
2022-10-18T00:05:03.661Z,15.80
2022-10-18T00:07:06.387Z,15.80
2022-10-18T00:09:18.841Z,15.90
2022-10-18T00:11:21.366Z,15.90
2022-10-18T00:13:24.613Z,15.90
2022-10-18T00:15:27.378Z,15.90
2022-10-18T00:17:30.258Z,16.00
2022-10-18T00:19:33.020Z,16.00
2022-10-18T00:21:35.704Z,16.10
2022-10-18T00:23:38.729Z,16.10
2022-10-18T00:25:41.251Z,16.10
2022-10-18T00:27:43.886Z,16.20
2022-10-18T00:29:46.585Z,16.20
2022-10-18T00:31:49.153Z,16.20
2022-10-18T00:33:55.298Z,16.20
2022-10-18T00:36:00.980Z,16.20
2022-10-18T00:38:03.518Z,16.30
2022-10-18T00:40:06.779Z,16.30
2022-10-18T00:42:17.479Z,16.40
2022-10-18T00:44:25.764Z,16.40
2022-10-18T00:46:35.046Z,16.50
2022-10-18T00:48:37.615Z,16.40
2022-10-18T00:50:40.860Z,16.50
2022-10-18T00:52:53.653Z,16.50
2022-10-18T00:54:59.668Z,16.50
2022-10-18T00:57:03.269Z,16.50
2022-10-18T00:59:06.077Z,16.50
2022-10-18T01:01:08.835Z,16.50
2022-10-18T01:03:11.447Z,16.40
2022-10-18T01:05:17.228Z,16.40
2022-10-18T01:07:35.604Z,16.40
2022-10-18T01:09:52.154Z,16.40
2022-10-18T01:12:24.754Z,16.40
2022-10-18T01:14:45.454Z,16.40
2022-10-18T01:16:59.151Z,16.40
2022-10-18T01:19:06.825Z,16.40
2022-10-18T01:21:20.493Z,16.40
2022-10-18T01:24:09.983Z,16.40
2022-10-18T01:26:39.730Z,16.30
2022-10-18T01:29:22.706Z,16.30
2022-10-18T01:31:45.641Z,16.30
2022-10-18T01:33:54.127Z,16.20
2022-10-18T01:36:10.099Z,16.20
2022-10-18T01:38:17.985Z,16.20
2022-10-18T01:40:23.844Z,16.20
2022-10-18T01:42:27.071Z,16.20
2022-10-18T01:44:33.306Z,16.20
2022-10-18T01:46:37.461Z,16.20
2022-10-18T01:48:40.131Z,16.20
2022-10-18T01:50:42.841Z,16.20
2022-10-18T01:52:51.987Z,16.20
2022-10-18T01:54:56.085Z,16.20
2022-10-18T01:57:22.755Z,16.20
2022-10-18T01:59:56.576Z,16.20
2022-10-18T02:02:20.965Z,16.30
2022-10-18T02:04:49.984Z,16.30
2022-10-18T02:07:02.004Z,16.30
2022-10-18T02:09:18.359Z,16.30
2022-10-18T02:11:21.302Z,16.30
2022-10-18T02:13:29.242Z,16.40
2022-10-18T02:15:36.318Z,16.40
2022-10-18T02:17:40.341Z,16.40
2022-10-18T02:19:48.430Z,16.40
2022-10-18T02:21:54.153Z,16.50
2022-10-18T02:23:59.102Z,16.40
2022-10-18T02:26:02.198Z,16.40
2022-10-18T02:28:05.909Z,16.50
2022-10-18T02:30:09.946Z,16.50
2022-10-18T02:32:31.078Z,16.50
2022-10-18T02:34:46.931Z,16.50
2022-10-18T02:36:56.766Z,16.50
2022-10-18T02:39:07.338Z,16.50
2022-10-18T02:41:09.867Z,16.50
2022-10-18T02:43:14.515Z,16.50
2022-10-18T02:45:17.662Z,16.50
2022-10-18T02:47:20.165Z,16.50
2022-10-18T02:49:23.478Z,16.50
2022-10-18T02:51:26.256Z,16.50
2022-10-18T02:53:29.543Z,16.50
2022-10-18T02:55:32.193Z,16.50
2022-10-18T02:57:38.482Z,16.50
2022-10-18T02:59:41.054Z,16.50
2022-10-18T03:01:43.666Z,16.50
2022-10-18T03:03:46.265Z,16.50
2022-10-18T03:05:53.021Z,16.50
2022-10-18T03:07:57.903Z,16.50
2022-10-18T03:10:00.446Z,16.50
2022-10-18T03:12:03.077Z,16.50
2022-10-18T03:14:05.589Z,16.50
2022-10-18T03:16:08.102Z,16.50
2022-10-18T03:18:11.117Z,16.50
2022-10-18T03:20:13.967Z,16.50
2022-10-18T03:22:16.533Z,16.60
2022-10-18T03:24:19.111Z,16.60
2022-10-18T03:26:22.644Z,16.60
2022-10-18T03:28:25.279Z,16.70
2022-10-18T03:30:27.917Z,16.70
2022-10-18T03:32:31.977Z,16.70
2022-10-18T03:34:34.860Z,16.80
2022-10-18T03:36:38.783Z,16.80
2022-10-18T03:38:41.565Z,16.80
2022-10-18T03:40:44.086Z,16.80
2022-10-18T03:42:46.838Z,16.80
2022-10-18T03:44:49.404Z,16.90
2022-10-18T03:46:52.014Z,16.90
2022-10-18T03:48:54.565Z,16.90
2022-10-18T03:50:57.126Z,16.90
2022-10-18T03:52:59.684Z,16.90
2022-10-18T03:55:09.305Z,16.90
2022-10-18T03:57:11.883Z,16.90
2022-10-18T03:59:14.466Z,16.90
2022-10-18T04:01:17.278Z,16.90
2022-10-18T04:03:22.246Z,16.90
2022-10-18T04:05:26.857Z,16.90
2022-10-18T04:07:30.748Z,16.80
2022-10-18T04:09:33.337Z,16.80
2022-10-18T04:11:36.909Z,16.90
2022-10-18T04:13:40.229Z,16.90
2022-10-18T04:15:43.628Z,16.80
2022-10-18T04:17:46.723Z,16.80
2022-10-18T04:19:49.556Z,16.80
2022-10-18T04:21:52.066Z,16.80
2022-10-18T04:23:54.654Z,16.80
2022-10-18T04:25:57.198Z,16.80
2022-10-18T04:27:59.712Z,16.80
2022-10-18T04:30:03.233Z,16.80
2022-10-18T04:32:05.947Z,16.90
2022-10-18T04:34:09.641Z,16.80
2022-10-18T04:36:12.591Z,16.80
2022-10-18T04:38:15.182Z,16.90
2022-10-18T04:40:18.002Z,16.80
2022-10-18T04:42:21.819Z,16.80
2022-10-18T04:44:24.380Z,16.80
2022-10-18T04:46:26.973Z,16.80
2022-10-18T04:48:29.521Z,16.80
2022-10-18T04:50:32.097Z,16.80
2022-10-18T04:52:34.780Z,16.90
2022-10-18T04:54:37.638Z,16.90
2022-10-18T04:56:40.204Z,16.90
2022-10-18T04:58:42.889Z,16.90
2022-10-18T05:00:45.974Z,16.90
2022-10-18T05:02:48.604Z,16.90
2022-10-18T05:04:51.772Z,16.90
2022-10-18T05:06:54.362Z,16.90
2022-10-18T05:08:57.033Z,16.90
2022-10-18T05:10:59.763Z,16.90
2022-10-18T05:13:02.317Z,16.90
2022-10-18T05:15:05.578Z,16.90
2022-10-18T05:17:08.109Z,16.90
2022-10-18T05:19:11.071Z,16.90
2022-10-18T05:21:13.682Z,16.90
2022-10-18T05:23:16.248Z,16.90
2022-10-18T05:25:18.760Z,16.90
2022-10-18T05:27:35.944Z,17.00
2022-10-18T05:29:38.474Z,16.90
2022-10-18T05:32:31.349Z,17.00
2022-10-18T05:34:34.594Z,16.90
2022-10-18T05:36:37.137Z,16.90
2022-10-18T05:38:45.394Z,16.90
2022-10-18T05:40:48.040Z,16.90
2022-10-18T05:42:53.701Z,16.90
2022-10-18T05:44:56.252Z,16.90
2022-10-18T05:46:58.824Z,16.90
2022-10-18T05:49:01.468Z,16.90
2022-10-18T05:51:04.264Z,16.90
2022-10-18T05:53:36.842Z,16.90
2022-10-18T05:55:41.643Z,16.80
2022-10-18T05:57:44.144Z,16.80
2022-10-18T05:59:46.754Z,16.90
2022-10-18T06:01:57.369Z,16.90
2022-10-18T06:03:59.967Z,16.90
2022-10-18T06:06:13.294Z,16.80
2022-10-18T06:08:15.852Z,16.80
2022-10-18T06:10:18.522Z,16.80
2022-10-18T06:12:21.072Z,16.80
2022-10-18T06:14:23.721Z,16.80
2022-10-18T06:16:31.958Z,16.80
2022-10-18T06:19:00.517Z,16.80
2022-10-18T06:21:03.937Z,16.80
2022-10-18T06:23:06.940Z,16.80
2022-10-18T06:25:09.925Z,16.80
2022-10-18T06:27:12.506Z,16.80
2022-10-18T06:29:15.175Z,16.80
2022-10-18T06:31:35.056Z,16.80
2022-10-18T06:33:37.686Z,16.80
2022-10-18T06:35:40.329Z,16.80
2022-10-18T06:39:50.327Z,16.90
2022-10-18T06:41:54.002Z,16.90
2022-10-18T06:43:58.488Z,16.90
2022-10-18T06:46:04.830Z,16.90
2022-10-18T06:48:07.607Z,16.90
2022-10-18T06:50:11.721Z,16.90
2022-10-18T06:52:15.334Z,16.90
2022-10-18T06:54:19.004Z,16.90
2022-10-18T06:56:23.121Z,17.00
2022-10-18T06:58:25.653Z,17.00
2022-10-18T07:00:31.708Z,17.00
2022-10-18T07:02:44.450Z,17.10
2022-10-18T07:04:47.448Z,17.10
2022-10-18T07:09:27.467Z,17.20
2022-10-18T07:11:30.088Z,17.20
2022-10-18T07:13:33.959Z,17.20
2022-10-18T07:15:38.682Z,17.30
2022-10-18T07:18:06.365Z,17.30
2022-10-18T07:20:09.400Z,17.30
2022-10-18T07:22:12.636Z,17.40
2022-10-18T07:24:21.888Z,17.40
2022-10-18T07:26:33.572Z,17.50
2022-10-18T07:28:39.259Z,17.50
2022-10-18T07:31:06.388Z,17.50
2022-10-18T07:33:35.219Z,17.50
2022-10-18T07:36:10.122Z,17.60
2022-10-18T07:38:15.138Z,17.50
2022-10-18T07:40:17.764Z,17.60
2022-10-18T07:42:20.653Z,17.60
2022-10-18T07:44:23.293Z,17.60
2022-10-18T07:46:27.762Z,17.60
2022-10-18T07:48:35.594Z,17.70
2022-10-18T07:50:38.205Z,17.70
2022-10-18T07:52:40.802Z,17.70
2022-10-18T07:54:43.398Z,17.70
2022-10-18T07:56:47.200Z,17.80
2022-10-18T07:58:53.088Z,17.80
2022-10-18T08:00:55.710Z,17.80
2022-10-18T08:03:01.746Z,17.90
2022-10-18T08:05:35.718Z,17.90
2022-10-18T08:07:38.404Z,18.00
2022-10-18T08:09:40.976Z,18.00
2022-10-18T08:11:43.546Z,18.00
2022-10-18T08:13:46.711Z,18.10
2022-10-18T08:15:49.248Z,18.10
2022-10-18T08:17:52.594Z,18.20
2022-10-18T08:20:11.715Z,18.20
2022-10-18T08:22:16.737Z,18.10
2022-10-18T08:24:19.786Z,18.20
2022-10-18T08:26:24.421Z,18.20
2022-10-18T08:28:28.775Z,18.10
2022-10-18T08:30:31.447Z,18.00
2022-10-18T08:33:27.583Z,18.00
2022-10-18T08:35:31.747Z,18.00
2022-10-18T08:37:40.308Z,17.90
2022-10-18T08:39:43.036Z,17.90
2022-10-18T08:42:13.436Z,17.90
2022-10-18T08:44:30.709Z,17.90
2022-10-18T08:46:35.461Z,17.80
2022-10-18T08:48:47.362Z,17.80
2022-10-18T08:50:55.475Z,17.80
2022-10-18T08:53:17.741Z,17.80
2022-10-18T08:55:36.391Z,17.80
2022-10-18T08:57:40.489Z,17.80
2022-10-18T08:59:44.409Z,17.80
2022-10-18T09:02:17.542Z,17.80
2022-10-18T09:04:46.661Z,17.80
2022-10-18T09:07:36.804Z,17.80
2022-10-18T09:09:51.896Z,17.80
2022-10-18T09:12:27.089Z,17.80
2022-10-18T09:15:19.716Z,17.90
2022-10-18T09:17:42.829Z,17.90
2022-10-18T09:20:09.844Z,17.90
2022-10-18T09:22:18.771Z,18.00
2022-10-18T09:24:38.837Z,18.10
2022-10-18T09:26:47.045Z,18.10
2022-10-18T09:29:34.074Z,18.20
2022-10-18T09:32:12.805Z,18.30
2022-10-18T09:34:40.263Z,18.30
2022-10-18T09:36:46.502Z,18.40
2022-10-18T09:38:56.118Z,18.40
2022-10-18T09:41:09.033Z,18.30
2022-10-18T09:43:21.518Z,18.30
2022-10-18T09:45:28.154Z,18.30
2022-10-18T09:47:41.657Z,18.30
2022-10-18T09:49:52.871Z,18.30
2022-10-18T09:51:56.577Z,18.20
2022-10-18T09:54:22.230Z,18.20
2022-10-18T09:56:40.932Z,18.10
2022-10-18T09:58:51.545Z,18.00
2022-10-18T10:00:55.328Z,17.90
2022-10-18T10:03:00.933Z,17.80
2022-10-18T10:05:03.858Z,17.70
2022-10-18T10:07:12.944Z,17.70
2022-10-18T10:09:18.493Z,17.60
2022-10-18T10:11:34.361Z,17.50
2022-10-18T10:13:38.894Z,17.50
2022-10-18T10:15:57.545Z,17.50
2022-10-18T10:18:09.185Z,17.40
2022-10-18T10:20:24.195Z,17.40
2022-10-18T10:22:40.741Z,17.30
2022-10-18T10:24:47.875Z,17.30
2022-10-18T10:26:51.542Z,17.30
2022-10-18T10:28:54.335Z,17.40
2022-10-18T10:31:34.561Z,17.40
2022-10-18T10:33:38.984Z,17.40
2022-10-18T10:35:52.969Z,17.50
2022-10-18T10:37:57.043Z,17.50
2022-10-18T10:40:25.151Z,17.60
2022-10-18T10:42:32.974Z,17.60
2022-10-18T10:44:37.153Z,17.60
2022-10-18T10:47:06.024Z,17.70
2022-10-18T10:49:41.572Z,17.70
2022-10-18T10:51:45.205Z,17.70
2022-10-18T10:54:16.130Z,17.70
2022-10-18T10:57:00.920Z,17.70
2022-10-18T10:59:17.282Z,17.70
2022-10-18T11:01:23.966Z,17.70
2022-10-18T11:03:29.407Z,17.70
2022-10-18T11:05:45.578Z,17.70
2022-10-18T11:09:06.299Z,17.70
2022-10-18T11:11:30.650Z,17.70
2022-10-18T11:13:53.370Z,17.80
2022-10-18T11:16:20.596Z,17.80
2022-10-18T11:18:32.901Z,17.80
2022-10-18T11:20:49.519Z,17.90
2022-10-18T11:23:06.714Z,17.90
2022-10-18T11:25:15.374Z,18.00
2022-10-18T11:27:31.469Z,18.00
2022-10-18T11:30:02.939Z,18.10
2022-10-18T11:33:05.839Z,18.00
2022-10-18T11:35:27.960Z,17.90
2022-10-18T11:38:36.489Z,17.90
2022-10-18T11:41:23.250Z,17.80
2022-10-18T11:44:28.893Z,17.80
2022-10-18T11:46:55.992Z,17.80
2022-10-18T11:49:19.756Z,17.80
2022-10-18T11:52:07.733Z,17.80
2022-10-18T11:54:56.991Z,17.90
2022-10-18T11:57:43.983Z,17.90
2022-10-18T12:00:14.946Z,18.00
2022-10-18T12:02:48.096Z,18.00
2022-10-18T12:05:23.152Z,18.10
2022-10-18T12:07:27.818Z,18.10
2022-10-18T12:09:44.324Z,18.10
2022-10-18T12:12:02.027Z,18.20
2022-10-18T12:14:29.669Z,18.30
2022-10-18T12:16:50.887Z,18.30
2022-10-18T12:19:42.861Z,18.40
2022-10-18T12:21:45.867Z,18.40
2022-10-18T12:24:01.446Z,18.50
2022-10-18T12:26:11.198Z,18.50
2022-10-18T12:28:16.631Z,18.50
2022-10-18T12:31:00.913Z,18.50
2022-10-18T12:33:28.263Z,18.50
2022-10-18T12:35:45.275Z,18.40
2022-10-18T12:38:02.694Z,18.30
2022-10-18T12:40:21.816Z,18.30
2022-10-18T12:42:31.662Z,18.20
2022-10-18T12:44:38.208Z,18.20
2022-10-18T12:46:52.706Z,18.20
2022-10-18T12:49:04.966Z,18.10
2022-10-18T12:51:23.813Z,18.10
2022-10-18T12:53:32.149Z,18.10
2022-10-18T12:57:52.261Z,18.20
2022-10-18T13:00:04.888Z,18.20
2022-10-18T13:02:21.196Z,18.20
2022-10-18T13:04:32.427Z,18.10
2022-10-18T13:06:59.304Z,18.20
2022-10-18T13:09:20.412Z,18.20
2022-10-18T13:11:35.827Z,18.20
2022-10-18T13:14:17.685Z,18.30
2022-10-18T13:16:36.517Z,18.30
2022-10-18T13:18:54.799Z,18.40
2022-10-18T13:21:10.418Z,18.40
2022-10-18T13:23:42.892Z,18.50
2022-10-18T13:26:14.319Z,18.50
2022-10-18T13:28:26.560Z,18.50
2022-10-18T13:30:55.859Z,18.50
2022-10-18T13:33:34.925Z,18.50
2022-10-18T13:35:54.960Z,18.50
2022-10-18T13:38:00.356Z,18.60
2022-10-18T13:40:35.254Z,18.60
2022-10-18T13:42:37.817Z,18.70
2022-10-18T13:44:44.682Z,18.80
2022-10-18T13:46:47.334Z,18.80
2022-10-18T13:48:50.644Z,18.90
2022-10-18T13:51:36.103Z,19.10
2022-10-18T13:54:03.899Z,19.20
2022-10-18T13:56:30.236Z,19.40
2022-10-18T13:59:13.131Z,19.40
2022-10-18T14:01:27.285Z,19.50
2022-10-18T14:03:57.507Z,19.40
2022-10-18T14:06:08.018Z,19.30
2022-10-18T14:08:21.315Z,19.20
2022-10-18T14:11:01.247Z,19.20
2022-10-18T14:13:18.667Z,19.10
2022-10-18T14:15:34.768Z,19.10
2022-10-18T14:17:45.195Z,19.10
2022-10-18T14:19:58.085Z,19.10
2022-10-18T14:22:18.899Z,19.10
2022-10-18T14:24:27.784Z,19.10
2022-10-18T14:26:31.746Z,19.10
2022-10-18T14:28:55.316Z,19.10
2022-10-18T14:31:07.365Z,19.00
2022-10-18T14:33:50.864Z,18.90
2022-10-18T14:36:15.499Z,18.80
2022-10-18T14:38:23.020Z,18.60
2022-10-18T14:40:40.278Z,18.50
2022-10-18T14:42:48.874Z,18.40
2022-10-18T14:44:54.420Z,18.30
2022-10-18T14:47:12.356Z,18.20
2022-10-18T14:49:17.782Z,18.10
2022-10-18T14:51:21.724Z,18.10
2022-10-18T14:53:25.431Z,18.00
2022-10-18T14:55:29.467Z,18.00
2022-10-18T14:57:36.408Z,17.90
2022-10-18T14:59:55.752Z,18.00
2022-10-18T15:02:13.949Z,17.90
2022-10-18T15:04:16.562Z,17.90
2022-10-18T15:06:20.348Z,17.90
2022-10-18T15:08:25.792Z,17.90
2022-10-18T15:10:32.659Z,17.90
2022-10-18T15:13:04.387Z,17.80
2022-10-18T15:15:03.878Z,17.80
2022-10-18T15:17:29.763Z,17.80
2022-10-18T15:19:42.895Z,17.80
2022-10-18T15:24:35.170Z,17.80
2022-10-18T15:26:44.313Z,17.90
2022-10-18T15:28:54.043Z,17.90
2022-10-18T15:31:01.813Z,17.90
2022-10-18T15:33:10.289Z,17.80
2022-10-18T15:35:28.104Z,17.70
2022-10-18T15:37:43.376Z,17.60
2022-10-18T15:39:45.988Z,17.50
2022-10-18T15:41:58.073Z,17.40
2022-10-18T15:44:29.729Z,17.30
2022-10-18T15:46:32.933Z,17.20
2022-10-18T15:48:40.949Z,17.10
2022-10-18T15:50:56.761Z,17.00
2022-10-18T15:53:22.886Z,17.00
2022-10-18T15:55:30.797Z,16.90
2022-10-18T15:57:33.834Z,16.90
2022-10-18T15:59:58.728Z,16.80
2022-10-18T16:02:02.242Z,16.70
2022-10-18T16:04:12.198Z,16.60
2022-10-18T16:06:18.227Z,16.60
2022-10-18T16:08:32.041Z,16.50
2022-10-18T16:10:34.605Z,16.50
2022-10-18T16:12:37.358Z,16.40
2022-10-18T16:14:39.913Z,16.30
2022-10-18T16:16:42.451Z,16.30
2022-10-18T16:18:45.082Z,16.20
2022-10-18T16:20:48.808Z,16.10
2022-10-18T16:22:52.434Z,16.00
2022-10-18T16:24:55.144Z,15.90
2022-10-18T16:26:57.656Z,15.90
2022-10-18T16:29:01.322Z,15.90
2022-10-18T16:31:04.250Z,15.80
2022-10-18T16:33:07.596Z,15.70
2022-10-18T16:35:13.833Z,15.70
2022-10-18T16:37:16.382Z,15.60
2022-10-18T16:39:21.807Z,15.60
2022-10-18T16:41:24.874Z,15.50
2022-10-18T16:43:27.387Z,15.50
2022-10-18T16:45:30.167Z,15.40
2022-10-18T16:47:32.844Z,15.30
2022-10-18T16:49:38.550Z,15.20
2022-10-18T16:51:41.131Z,15.10
2022-10-18T16:53:44.591Z,15.10
2022-10-18T16:55:47.111Z,15.00
2022-10-18T16:57:51.857Z,14.90
2022-10-18T16:59:54.349Z,14.90
2022-10-18T17:01:57.080Z,14.80
2022-10-18T17:04:00.861Z,14.80
2022-10-18T17:06:03.498Z,14.80
2022-10-18T17:08:06.598Z,14.70
2022-10-18T17:10:16.170Z,14.70
2022-10-18T17:12:31.707Z,14.70
2022-10-18T17:14:36.948Z,14.60
2022-10-18T17:16:39.546Z,14.60
2022-10-18T17:18:42.939Z,14.50
2022-10-18T17:20:46.289Z,14.50
2022-10-18T17:22:49.065Z,14.50
2022-10-18T17:24:51.634Z,14.50
2022-10-18T17:26:54.211Z,14.40
2022-10-18T17:29:04.550Z,14.30
2022-10-18T17:31:35.949Z,14.30
2022-10-18T17:33:38.642Z,14.30
2022-10-18T17:35:43.273Z,14.30
2022-10-18T17:37:49.888Z,14.20
2022-10-18T17:39:53.028Z,14.20
2022-10-18T17:41:55.704Z,14.20
2022-10-18T17:44:00.889Z,14.10
2022-10-18T17:46:07.140Z,14.10
2022-10-18T17:48:11.682Z,14.00
2022-10-18T17:50:15.722Z,14.00
2022-10-18T17:52:47.023Z,14.00
2022-10-18T17:54:51.243Z,14.00
2022-10-18T17:57:24.209Z,13.90
2022-10-18T17:59:28.921Z,13.90
2022-10-18T18:01:34.399Z,13.90
2022-10-18T18:03:45.733Z,13.90
2022-10-18T18:05:53.027Z,13.90
2022-10-18T18:08:03.860Z,13.90
2022-10-18T18:10:09.962Z,13.80
2022-10-18T18:12:13.404Z,13.80
2022-10-18T18:14:16.424Z,13.80
2022-10-18T18:16:29.654Z,13.80
2022-10-18T18:18:32.204Z,13.70
2022-10-18T18:20:34.763Z,13.70
2022-10-18T18:22:40.384Z,13.60
2022-10-18T18:24:54.963Z,13.60
2022-10-18T18:26:58.104Z,13.60
2022-10-18T18:31:18.833Z,13.50
2022-10-18T18:33:21.446Z,13.50
2022-10-18T18:35:23.959Z,13.50
2022-10-18T18:37:35.029Z,13.40
2022-10-18T18:39:39.345Z,13.40
2022-10-18T18:41:41.877Z,13.40
2022-10-18T18:43:59.993Z,13.40
2022-10-18T18:46:03.170Z,13.40
2022-10-18T18:48:06.101Z,13.30
2022-10-18T18:50:09.014Z,13.30
2022-10-18T18:52:11.608Z,13.30
2022-10-18T18:54:14.932Z,13.30
2022-10-18T18:58:24.188Z,13.30
2022-10-18T19:00:26.829Z,13.20
2022-10-18T19:02:29.742Z,13.20
2022-10-18T19:04:32.605Z,13.20
2022-10-18T19:06:38.961Z,13.20
2022-10-18T19:08:44.842Z,13.20
2022-10-18T19:10:49.332Z,13.10
2022-10-18T19:12:53.873Z,13.10
2022-10-18T19:14:56.427Z,13.10
2022-10-18T19:16:59.930Z,13.10
2022-10-18T19:19:06.752Z,13.10
2022-10-18T19:21:10.043Z,13.20
2022-10-18T19:23:12.594Z,13.20
2022-10-18T19:25:15.381Z,13.20
2022-10-18T19:27:17.930Z,13.10
2022-10-18T19:29:30.456Z,13.10
2022-10-18T19:31:35.007Z,13.10
2022-10-18T19:33:48.166Z,13.00
2022-10-18T19:35:58.498Z,13.00
2022-10-18T19:38:01.069Z,13.00
2022-10-18T19:40:04.476Z,13.00
2022-10-18T19:42:15.677Z,12.90
2022-10-18T19:44:23.021Z,12.90
2022-10-18T19:46:26.431Z,12.90
2022-10-18T19:48:29.394Z,12.90
2022-10-18T19:50:31.947Z,12.90
2022-10-18T19:52:35.011Z,12.80
2022-10-18T19:54:38.472Z,12.80
2022-10-18T19:56:41.871Z,12.80
2022-10-18T19:58:45.987Z,12.80
2022-10-18T20:00:54.039Z,12.70
2022-10-18T20:02:56.697Z,12.70
2022-10-18T20:04:59.236Z,12.70
2022-10-18T20:07:02.949Z,12.60
2022-10-18T20:09:07.560Z,12.60
2022-10-18T20:11:15.257Z,12.50
2022-10-18T20:13:18.226Z,12.50
2022-10-18T20:15:20.807Z,12.50
2022-10-18T20:17:23.306Z,12.50
2022-10-18T20:19:25.904Z,12.50
2022-10-18T20:21:39.496Z,12.40
2022-10-18T20:23:44.254Z,12.40
2022-10-18T20:26:04.436Z,12.40
2022-10-18T20:28:07.025Z,12.40
2022-10-18T20:30:14.756Z,12.30
2022-10-18T20:32:17.408Z,12.40
2022-10-18T20:34:25.146Z,12.40
2022-10-18T20:36:30.201Z,12.40
2022-10-18T20:38:35.201Z,12.40
2022-10-18T20:40:37.754Z,12.40
2022-10-18T20:42:40.441Z,12.50
2022-10-18T20:44:43.661Z,12.50
2022-10-18T20:46:47.092Z,12.60
2022-10-18T20:48:51.527Z,12.60
2022-10-18T20:50:54.290Z,12.60
2022-10-18T20:52:56.849Z,12.60
2022-10-18T20:55:01.509Z,12.50
2022-10-18T20:57:04.088Z,12.50
2022-10-18T20:59:09.913Z,12.40
2022-10-18T21:01:17.111Z,12.40
2022-10-18T21:03:41.622Z,12.40
2022-10-18T21:05:44.142Z,12.30
2022-10-18T21:07:47.233Z,12.20
2022-10-18T21:09:50.009Z,12.20
2022-10-18T21:11:54.610Z,12.20
2022-10-18T21:14:02.727Z,12.10
2022-10-18T21:16:05.918Z,12.10
2022-10-18T21:18:09.051Z,12.10
2022-10-18T21:20:11.838Z,12.00
2022-10-18T21:22:14.403Z,12.00
2022-10-18T21:24:18.982Z,12.00
2022-10-18T21:26:25.949Z,11.90
2022-10-18T21:28:28.633Z,11.80
2022-10-18T21:30:31.162Z,11.80
2022-10-18T21:32:34.234Z,11.70
2022-10-18T21:34:36.949Z,11.70
2022-10-18T21:36:49.222Z,11.70
2022-10-18T21:38:52.232Z,11.60
2022-10-18T21:40:54.734Z,11.60
2022-10-18T21:42:57.626Z,11.60
2022-10-18T21:45:00.190Z,11.60
2022-10-18T21:47:09.541Z,11.60
2022-10-18T21:49:13.727Z,11.60
2022-10-18T21:51:19.074Z,11.50
2022-10-18T21:53:23.092Z,11.50
2022-10-18T21:55:26.256Z,11.50
2022-10-18T21:57:28.812Z,11.40
2022-10-18T21:59:31.435Z,11.40
2022-10-18T22:01:37.852Z,11.40
2022-10-18T22:03:50.307Z,11.40
2022-10-18T22:06:07.452Z,11.40
2022-10-18T22:08:09.988Z,11.40
2022-10-18T22:10:12.552Z,11.40
2022-10-18T22:12:15.318Z,11.40
2022-10-18T22:14:17.949Z,11.40
2022-10-18T22:16:20.904Z,11.40
2022-10-18T22:18:23.459Z,11.40
2022-10-18T22:20:26.458Z,11.40
2022-10-18T22:22:28.943Z,11.40
2022-10-18T22:24:31.606Z,11.30
2022-10-18T22:26:37.985Z,11.30
2022-10-18T22:28:43.250Z,11.30
2022-10-18T22:30:45.881Z,11.20
2022-10-18T22:32:48.463Z,11.20
2022-10-18T22:34:51.095Z,11.20
2022-10-18T22:36:53.770Z,11.20
2022-10-18T22:38:56.586Z,11.10
2022-10-18T22:41:06.729Z,11.10
2022-10-18T22:43:09.401Z,11.10
2022-10-18T22:45:11.954Z,11.10
2022-10-18T22:47:14.477Z,11.10
2022-10-18T22:49:17.447Z,11.10
2022-10-18T22:52:45.107Z,11.00
2022-10-18T22:54:47.705Z,11.00
2022-10-18T22:56:51.794Z,11.00
2022-10-18T22:58:54.360Z,11.00
2022-10-18T23:01:09.006Z,10.90
2022-10-18T23:03:18.764Z,10.90
2022-10-18T23:05:21.311Z,10.90
2022-10-18T23:07:23.941Z,10.90
2022-10-18T23:09:26.497Z,10.90
2022-10-18T23:11:30.144Z,10.80
2022-10-18T23:13:35.030Z,10.80
2022-10-18T23:15:39.997Z,10.80
2022-10-18T23:17:43.557Z,10.80
2022-10-18T23:19:46.550Z,10.80
2022-10-18T23:22:21.407Z,10.80
2022-10-18T23:24:23.950Z,10.80
2022-10-18T23:27:20.272Z,10.80
2022-10-18T23:29:22.982Z,10.80
2022-10-18T23:31:27.750Z,10.80
2022-10-18T23:33:30.289Z,10.80
2022-10-18T23:35:33.183Z,10.80
2022-10-18T23:37:36.091Z,10.80
2022-10-18T23:39:39.010Z,10.90
2022-10-18T23:41:41.542Z,10.90
2022-10-18T23:43:44.458Z,11.00
2022-10-18T23:47:50.434Z,11.10
2022-10-18T23:49:55.580Z,11.20
2022-10-18T23:51:58.126Z,11.20
2022-10-18T23:54:00.765Z,11.20
2022-10-18T23:56:07.949Z,11.30
2022-10-18T23:58:10.486Z,11.30
